地図

経路データ

SID SEASON NUMBER BASIN SUBBASIN NAME ISO_TIME NATURE LAT LON WMO_WIND WMO_PRES WMO_AGENCY TRACK_TYPE DIST2LAND LANDFALL IFLAG USA_AGENCY USA_ATCF_ID USA_LAT USA_LON USA_RECORD USA_STATUS USA_WIND USA_PRES USA_SSHS USA_R34_NE USA_R34_SE USA_R34_SW USA_R34_NW USA_R50_NE USA_R50_SE USA_R50_SW USA_R50_NW USA_R64_NE USA_R64_SE USA_R64_SW USA_R64_NW USA_POCI USA_ROCI USA_RMW USA_EYE TOKYO_LAT TOKYO_LON TOKYO_GRADE TOKYO_WIND TOKYO_PRES TOKYO_R50_DIR TOKYO_R50_LONG TOKYO_R50_SHORT TOKYO_R30_DIR TOKYO_R30_LONG TOKYO_R30_SHORT TOKYO_LAND CMA_LAT CMA_LON CMA_CAT CMA_WIND CMA_PRES HKO_LAT HKO_LON HKO_CAT HKO_WIND HKO_PRES NEWDELHI_LAT NEWDELHI_LON NEWDELHI_GRADE NEWDELHI_WIND NEWDELHI_PRES NEWDELHI_CI NEWDELHI_DP NEWDELHI_POCI REUNION_LAT REUNION_LON REUNION_TYPE REUNION_WIND REUNION_PRES REUNION_TNUM REUNION_CI REUNION_RMW REUNION_R34_NE REUNION_R34_SE REUNION_R34_SW REUNION_R34_NW REUNION_R50_NE REUNION_R50_SE REUNION_R50_SW REUNION_R50_NW REUNION_R64_NE REUNION_R64_SE REUNION_R64_SW REUNION_R64_NW BOM_LAT BOM_LON BOM_TYPE BOM_WIND BOM_PRES BOM_TNUM BOM_CI BOM_RMW BOM_R34_NE BOM_R34_SE BOM_R34_SW BOM_R34_NW BOM_R50_NE BOM_R50_SE BOM_R50_SW BOM_R50_NW BOM_R64_NE BOM_R64_SE BOM_R64_SW BOM_R64_NW BOM_ROCI BOM_POCI BOM_EYE BOM_POS_METHOD BOM_PRES_METHOD NADI_LAT NADI_LON NADI_CAT NADI_WIND NADI_PRES WELLINGTON_LAT WELLINGTON_LON WELLINGTON_WIND WELLINGTON_PRES DS824_LAT DS824_LON DS824_STAGE DS824_WIND DS824_PRES TD9636_LAT TD9636_LON TD9636_STAGE TD9636_WIND TD9636_PRES TD9635_LAT TD9635_LON TD9635_WIND TD9635_PRES TD9635_ROCI NEUMANN_LAT NEUMANN_LON NEUMANN_CLASS NEUMANN_WIND NEUMANN_PRES MLC_LAT MLC_LON MLC_CLASS MLC_WIND MLC_PRES USA_GUST BOM_GUST BOM_GUST_PER REUNION_GUST REUNION_GUST_PER USA_SEAHGT USA_SEARAD_NE USA_SEARAD_SE USA_SEARAD_SW USA_SEARAD_NW STORM_SPEED STORM_DIR
1927021S10061 1927 2 SI MM NOT_NAMED 1927-01-21 06:00:00 NR -10.2000 61.2000 reunion main 1169 1169 _____O________ -1 -10.2000 61.2000 99 9.90000 1 347
1927021S10061 1927 2 SI MM NOT_NAMED 1927-01-21 09:00:00 NR -10.1331 61.1743 main 1180 1177 _____P________ -1 -10.1331 61.1743 99 1 338
1927021S10061 1927 2 SI MM NOT_NAMED 1927-01-21 12:00:00 NR -10.0786 61.1416 main 1177 1177 _____P________ -1 -10.0786 61.1416 99 1 315
1927021S10061 1927 2 SI MM NOT_NAMED 1927-01-21 15:00:00 NR -10.0487 61.0947 main 1187 1173 _____P________ -1 -10.0487 61.0947 99 1 282
1927021S10061 1927 2 SI MM NOT_NAMED 1927-01-21 18:00:00 NR -10.0558 61.0267 main 1173 1170 _____P________ -1 -10.0558 61.0267 99 2 249
1927021S10061 1927 2 SI MM NOT_NAMED 1927-01-21 21:00:00 NR -10.1121 60.9304 main 1170 1156 _____P________ -1 -10.1121 60.9304 99 3 232
1927021S10061 1927 2 SI MM NOT_NAMED 1927-01-22 00:00:00 NR -10.2301 60.7987 main 1156 1129 _____P________ -1 -10.2301 60.7987 99 4 224
1927021S10061 1927 2 SI MM NOT_NAMED 1927-01-22 03:00:00 NR -10.4220 60.6244 main 1129 1091 _____P________ -1 -10.4220 60.6244 99 6 220
1927021S10061 1927 2 SI MM NOT_NAMED 1927-01-22 06:00:00 NR -10.7000 60.4000 reunion main 1091 1050 _____O________ -1 -10.7000 60.4000 99 9.90000 8 217
1927021S10061 1927 2 SI MM NOT_NAMED 1927-01-22 09:00:00 NR -11.0722 60.1224 main 1039 988 _____P________ -1 -11.0722 60.1224 99 10 215
1927021S10061 1927 2 SI MM NOT_NAMED 1927-01-22 12:00:00 NR -11.5292 59.8054 main 988 926 _____P________ -1 -11.5292 59.8054 99 12 213
1927021S10061 1927 2 SI MM NOT_NAMED 1927-01-22 15:00:00 NR -12.0576 59.4670 main 915 852 _____P________ -1 -12.0576 59.4670 99 13 211
1927021S10061 1927 2 SI MM NOT_NAMED 1927-01-22 18:00:00 NR -12.6438 59.1254 main 852 781 _____P________ -1 -12.6438 59.1254 99 14 208
1927021S10061 1927 2 SI MM NOT_NAMED 1927-01-22 21:00:00 NR -13.2743 58.7992 main 769 699 _____P________ -1 -13.2743 58.7992 99 14 205
1927021S10061 1927 2 SI MM NOT_NAMED 1927-01-23 00:00:00 NR -13.9360 58.5069 main 699 618 _____P________ -1 -13.9360 58.5069 99 14 201
1927021S10061 1927 2 SI MM NOT_NAMED 1927-01-23 03:00:00 NR -14.6155 58.2674 main 618 538 _____P________ -1 -14.6155 58.2674 99 14 196
1927021S10061 1927 2 SI MM NOT_NAMED 1927-01-23 06:00:00 NR -15.3000 58.1000 reunion main 538 460 _____O________ -1 -15.3000 58.1000 99 9.90000 14 188
1927021S10061 1927 2 SI MM NOT_NAMED 1927-01-23 09:00:00 NR -15.9978 58.0713 main 460 382 _____P________ -1 -15.9978 58.0713 99 14 179
1927021S10061 1927 2 SI MM NOT_NAMED 1927-01-23 12:00:00 NR -16.7193 58.1133 main 382 306 _____P________ -1 -16.7193 58.1133 99 15 175
1927021S10061 1927 2 SI MM NOT_NAMED 1927-01-23 15:00:00 NR -17.4477 58.2129 main 306 232 _____P________ -1 -17.4477 58.2129 99 15 171
1927021S10061 1927 2 SI MM NOT_NAMED 1927-01-23 18:00:00 NR -18.1662 58.3568 main 224 167 _____P________ -1 -18.1662 58.3568 99 15 168
1927021S10061 1927 2 SI MM NOT_NAMED 1927-01-23 21:00:00 NR -18.8576 58.5315 main 158 124 _____P________ -1 -18.8576 58.5315 99 14 165
1927021S10061 1927 2 SI MM NOT_NAMED 1927-01-24 00:00:00 NR -19.5050 58.7230 main 124 113 _____P________ -1 -19.5050 58.7230 99 13 164
1927021S10061 1927 2 SI MM NOT_NAMED 1927-01-24 03:00:00 NR -20.0914 58.9174 main 116 115 _____P________ -1 -20.0914 58.9174 99 12 162
1927021S10061 1927 2 SI MM NOT_NAMED 1927-01-24 06:00:00 NR -20.6000 59.1000 reunion main 139 139 _____O________ -1 -20.6000 59.1000 99 9.90000 9 163
1927021S10061 1927 2 SI MM NOT_NAMED 1927-01-24 09:00:00 NR -20.9716 59.2051 main 165 165 _____P________ -1 -20.9716 59.2051 99 7 164
1927021S10061 1927 2 SI MM NOT_NAMED 1927-01-24 12:00:00 NR -21.2664 59.3049 main 188 188 _____P________ -1 -21.2664 59.3049 99 6 161
1927021S10061 1927 2 SI MM NOT_NAMED 1927-01-24 15:00:00 NR -21.5002 59.4012 main 208 208 _____P________ -1 -21.5002 59.4012 99 5 157
1927021S10061 1927 2 SI MM NOT_NAMED 1927-01-24 18:00:00 NR -21.6886 59.4960 main 229 229 _____P________ -1 -21.6886 59.4960 99 4 153
1927021S10061 1927 2 SI MM NOT_NAMED 1927-01-24 21:00:00 NR -21.8472 59.5913 main 244 244 _____P________ -1 -21.8472 59.5913 99 4 149
1927021S10061 1927 2 SI MM NOT_NAMED 1927-01-25 00:00:00 NR -21.9916 59.6890 main 266 266 _____P________ -1 -21.9916 59.6890 99 3 147
1927021S10061 1927 2 SI MM NOT_NAMED 1927-01-25 03:00:00 NR -22.1374 59.7912 main 281 281 _____P________ -1 -22.1374 59.7912 99 4 148
1927021S10061 1927 2 SI MM NOT_NAMED 1927-01-25 06:00:00 NR -22.3000 59.9000 reunion main 303 303 _____O________ -1 -22.3000 59.9000 99 9.90000 5 153
1927021S10061 1927 2 SI MM NOT_NAMED 1927-01-25 09:00:00 NR -22.5650 60.0307 main 334 334 _____P________ -1 -22.5650 60.0307 99 6 155
1927021S10061 1927 2 SI MM NOT_NAMED 1927-01-25 12:00:00 NR -22.8411 60.1687 main 364 364 _____P________ -1 -22.8411 60.1687 99 6 155
1927021S10061 1927 2 SI MM NOT_NAMED 1927-01-25 15:00:00 NR -23.1223 60.3113 main 395 395 _____P________ -1 -23.1223 60.3113 99 6 155
1927021S10061 1927 2 SI MM NOT_NAMED 1927-01-25 18:00:00 NR -23.4028 60.4560 main 434 434 _____P________ -1 -23.4028 60.4560 99 6 154
1927021S10061 1927 2 SI MM NOT_NAMED 1927-01-25 21:00:00 NR -23.6766 60.6000 main 466 466 _____P________ -1 -23.6766 60.6000 99 6 154
1927021S10061 1927 2 SI MM NOT_NAMED 1927-01-26 00:00:00 NR -23.9380 60.7405 main 489 489 _____P________ -1 -23.9380 60.7405 99 6 153
1927021S10061 1927 2 SI MM NOT_NAMED 1927-01-26 03:00:00 NR -24.1811 60.8748 main 528 528 _____P________ -1 -24.1811 60.8748 99 5 153
1927021S10061 1927 2 SI MM NOT_NAMED 1927-01-26 06:00:00 NR -24.4000 61.0000 reunion main 552 552 _____O________ -1 -24.4000 61.0000 99 9.90000 5 152
1927021S10061 1927 2 SI MM NOT_NAMED 1927-01-26 09:00:00 NR -24.5905 61.1140 main 576 576 _____P________ -1 -24.5905 61.1140 99 4 151
1927021S10061 1927 2 SI MM NOT_NAMED 1927-01-26 12:00:00 NR -24.7548 61.2174 main 599 599 _____P________ -1 -24.7548 61.2174 99 4 149
1927021S10061 1927 2 SI MM NOT_NAMED 1927-01-26 15:00:00 NR -24.8966 61.3117 main 614 614 _____P________ -1 -24.8966 61.3117 99 3 148
1927021S10061 1927 2 SI MM NOT_NAMED 1927-01-26 18:00:00 NR -25.0198 61.3985 main 629 629 _____P________ -1 -25.0198 61.3985 99 3 147
1927021S10061 1927 2 SI MM NOT_NAMED 1927-01-26 21:00:00 NR -25.1279 61.4792 main 644 644 _____P________ -1 -25.1279 61.4792 99 3 145
1927021S10061 1927 2 SI MM NOT_NAMED 1927-01-27 00:00:00 NR -25.2249 61.5553 main 659 659 _____P________ -1 -25.2249 61.5553 99 2 144
1927021S10061 1927 2 SI MM NOT_NAMED 1927-01-27 03:00:00 NR -25.3143 61.6284 main 668 668 _____P________ -1 -25.3143 61.6284 99 2 143
1927021S10061 1927 2 SI MM NOT_NAMED 1927-01-27 06:00:00 NR -25.4000 61.7000 reunion main 683 _____O________ -1 -25.4000 61.7000 99 9.90000 2 140

IBTrACS Databaseについて

本データベースは、米国NOAAが公開する1842年以降の世界の熱帯低気圧のベストトラックデータアーカイブInternational Best Track Archive for Climate Stewardship (IBTrACS)を、ウェブで閲覧しやすい形式に変換したものです。

最終更新日:2021-11-26